Time;durP1;ratioP1;P1;durP2;ratioP2;P2;SDS_P1;SDS_P2;PMS_P1;PMS_P2;Temp;Humidity;BMP_temperature;BMP_pressure;BME280_temperature;BME280_humidity;BME280_pressure;Samples;Min_cycle;Max_cycle;Signal;HPM_P1;HPM_P2
2023/11/13 00:02:27;;;;;;;5.60;4.70;;;7.80;99.90;;;;;;5071452;28;20784;-75
2023/11/13 00:05:15;;;;;;;9.70;4.50;;;7.80;99.90;;;;;;5068227;28;20398;-75
2023/11/13 00:08:01;;;;;;;5.23;4.30;;;7.70;99.90;;;;;;5082032;28;20987;-74
2023/11/13 00:10:46;;;;;;;6.10;4.90;;;7.80;99.90;;;;;;5080769;28;20456;-74
2023/11/13 00:13:32;;;;;;;8.70;5.30;;;7.90;99.90;;;;;;5067196;28;20451;-75
2023/11/13 00:16:18;;;;;;;6.47;5.20;;;7.80;99.90;;;;;;5078509;28;20569;-75
2023/11/13 00:19:04;;;;;;;7.73;4.53;;;7.80;99.90;;;;;;5071294;28;21042;-75
2023/11/13 00:21:51;;;;;;;6.80;5.40;;;7.80;99.90;;;;;;5076371;28;20474;-75
2023/11/13 00:24:36;;;;;;;5.40;4.90;;;7.70;99.90;;;;;;5064712;28;20578;-75
2023/11/13 00:27:22;;;;;;;5.97;4.83;;;7.80;99.90;;;;;;5064742;28;20419;-75
2023/11/13 00:30:10;;;;;;;10.83;4.70;;;7.90;99.90;;;;;;5072620;28;20445;-75
2023/11/13 00:32:55;;;;;;;5.67;4.77;;;7.90;99.90;;;;;;5069653;28;20785;-75
2023/11/13 00:35:41;;;;;;;6.27;5.67;;;7.90;99.90;;;;;;5077122;28;20847;-75
2023/11/13 00:38:28;;;;;;;5.43;4.60;;;8.00;99.90;;;;;;5065793;28;20584;-75
2023/11/13 00:41:14;;;;;;;6.90;5.03;;;8.00;99.90;;;;;;5069226;28;20488;-75
2023/11/13 00:44:01;;;;;;;5.13;4.07;;;7.90;99.90;;;;;;5078133;28;20513;-75
2023/11/13 00:46:47;;;;;;;7.10;5.33;;;7.90;99.90;;;;;;5078044;28;20520;-75
2023/11/13 00:49:32;;;;;;;6.40;4.70;;;8.00;99.90;;;;;;5077902;28;20430;-75
2023/11/13 00:52:18;;;;;;;4.50;4.07;;;8.00;99.90;;;;;;5070697;28;20444;-75
2023/11/13 00:55:07;;;;;;;4.90;3.93;;;8.00;99.90;;;;;;5071482;28;20451;-75
2023/11/13 00:57:53;;;;;;;4.80;3.77;;;8.00;99.90;;;;;;5065859;28;20443;-75
2023/11/13 01:00:38;;;;;;;5.30;3.83;;;8.00;99.90;;;;;;5083994;28;20462;-75
2023/11/13 01:03:24;;;;;;;5.53;4.10;;;8.00;99.90;;;;;;5069616;28;20545;-75
2023/11/13 01:06:16;;;;;;;6.80;4.70;;;8.00;99.90;;;;;;5072514;28;20481;-75
2023/11/13 01:09:01;;;;;;;7.00;3.93;;;7.90;99.90;;;;;;5067130;28;20528;-75
2023/11/13 01:11:50;;;;;;;6.17;4.60;;;7.90;99.90;;;;;;5071514;28;20463;-75
2023/11/13 01:14:36;;;;;;;5.47;4.87;;;7.90;99.90;;;;;;5083287;28;20909;-75
2023/11/13 01:17:22;;;;;;;5.53;4.67;;;8.00;99.90;;;;;;5067484;28;20435;-75
2023/11/13 01:20:09;;;;;;;5.40;4.30;;;8.00;99.90;;;;;;5075797;28;20518;-74
2023/11/13 01:22:55;;;;;;;6.10;5.20;;;7.90;99.90;;;;;;5074099;28;20480;-75
2023/11/13 01:25:41;;;;;;;7.17;4.87;;;7.90;99.90;;;;;;5076739;28;20447;-75
2023/11/13 01:28:28;;;;;;;6.33;4.53;;;7.90;99.90;;;;;;5059817;28;20440;-75
2023/11/13 01:31:15;;;;;;;5.00;4.30;;;7.90;99.90;;;;;;5072162;28;20989;-75
2023/11/13 01:34:01;;;;;;;5.67;4.67;;;7.90;99.90;;;;;;5074158;28;20612;-74
2023/11/13 01:36:47;;;;;;;4.93;4.33;;;7.90;99.90;;;;;;5066916;28;20438;-75
2023/11/13 01:39:33;;;;;;;6.20;4.93;;;7.80;99.90;;;;;;5072189;28;20813;-75
2023/11/13 01:42:18;;;;;;;5.37;4.87;;;7.80;99.90;;;;;;5081874;28;20842;-74
2023/11/13 01:45:07;;;;;;;7.77;5.40;;;7.90;99.90;;;;;;5070486;28;20620;-75
2023/11/13 01:47:53;;;;;;;8.97;4.77;;;8.00;99.90;;;;;;5074871;28;20445;-75
2023/11/13 01:50:39;;;;;;;5.20;4.60;;;8.10;99.90;;;;;;5067605;28;20901;-75
2023/11/13 01:53:26;;;;;;;7.47;5.67;;;8.10;99.90;;;;;;5066305;28;20553;-75
2023/11/13 01:56:12;;;;;;;6.57;4.93;;;8.20;99.90;;;;;;5060480;28;20798;-75
2023/11/13 01:58:59;;;;;;;6.30;5.20;;;8.20;99.90;;;;;;5073423;28;20570;-74
2023/11/13 02:01:47;;;;;;;6.43;5.70;;;8.20;99.90;;;;;;5069344;28;20462;-75
2023/11/13 02:04:33;;;;;;;9.40;5.27;;;8.10;99.90;;;;;;5074057;28;20470;-75
2023/11/13 02:07:19;;;;;;;7.37;5.80;;;8.20;99.90;;;;;;5062827;28;20438;-74
2023/11/13 02:10:07;;;;;;;9.17;5.50;;;8.20;99.90;;;;;;5063353;28;21064;-75
2023/11/13 02:12:53;;;;;;;7.60;6.03;;;8.10;99.90;;;;;;5072977;28;20444;-75
2023/11/13 02:15:40;;;;;;;10.50;5.60;;;8.20;99.90;;;;;;5071474;28;20452;-75
2023/11/13 02:18:27;;;;;;;7.30;6.57;;;8.20;99.90;;;;;;5068516;28;20508;-75
2023/11/13 02:21:13;;;;;;;8.07;6.47;;;8.20;99.90;;;;;;5052874;28;20912;-75
2023/11/13 02:24:01;;;;;;;8.60;6.87;;;8.20;99.90;;;;;;5068783;28;20531;-75
2023/11/13 02:26:47;;;;;;;7.77;6.97;;;8.10;99.90;;;;;;5071300;28;20468;-75
2023/11/13 02:29:32;;;;;;;8.93;7.00;;;8.20;99.90;;;;;;5068596;28;21070;-75
2023/11/13 02:32:18;;;;;;;7.10;6.37;;;8.20;99.90;;;;;;5075014;28;20552;-75
2023/11/13 02:35:05;;;;;;;9.53;7.83;;;8.20;99.90;;;;;;5074869;28;20829;-75
2023/11/13 02:37:51;;;;;;;7.77;6.73;;;8.10;99.90;;;;;;5075042;28;20494;-75
2023/11/13 02:40:38;;;;;;;8.47;7.13;;;8.10;99.90;;;;;;5070771;28;20569;-74
2023/11/13 02:43:23;;;;;;;10.93;7.73;;;8.20;99.90;;;;;;5072724;28;20552;-75
2023/11/13 02:46:09;;;;;;;9.13;7.07;;;8.10;99.90;;;;;;5084556;28;20450;-75
2023/11/13 02:48:55;;;;;;;10.43;7.40;;;8.10;99.90;;;;;;5068472;28;20447;-75
2023/11/13 02:51:41;;;;;;;9.60;6.97;;;8.10;99.90;;;;;;5077051;28;20964;-75
2023/11/13 02:54:27;;;;;;;8.63;7.37;;;8.10;99.90;;;;;;5078019;28;20565;-75
2023/11/13 02:57:14;;;;;;;9.73;6.73;;;8.10;99.90;;;;;;5075469;28;20785;-75
2023/11/13 02:59:59;;;;;;;9.40;7.70;;;8.10;99.90;;;;;;5073542;28;20427;-75
2023/11/13 03:02:45;;;;;;;9.60;7.70;;;8.10;99.90;;;;;;5071847;28;20464;-75
2023/11/13 03:05:30;;;;;;;9.57;7.30;;;8.10;99.90;;;;;;5072085;28;20563;-75
2023/11/13 03:08:16;;;;;;;11.17;8.47;;;8.10;99.90;;;;;;5075115;28;20495;-75
2023/11/13 03:11:02;;;;;;;7.90;7.03;;;8.10;99.90;;;;;;5076012;28;20447;-75
2023/11/13 03:13:49;;;;;;;10.43;8.03;;;8.20;99.90;;;;;;5079804;28;20476;-76
2023/11/13 03:16:34;;;;;;;7.57;6.60;;;8.10;99.90;;;;;;5070001;28;20925;-76
2023/11/13 03:19:21;;;;;;;8.60;7.50;;;8.10;99.90;;;;;;5071351;28;20470;-75
2023/11/13 03:22:07;;;;;;;9.30;7.53;;;8.10;99.90;;;;;;5076567;28;20466;-74
2023/11/13 03:24:52;;;;;;;7.40;6.60;;;8.10;99.90;;;;;;5075987;28;20463;-75
2023/11/13 03:27:38;;;;;;;7.43;6.67;;;8.20;99.90;;;;;;5064296;28;20574;-75
2023/11/13 03:30:25;;;;;;;8.40;6.53;;;8.10;99.90;;;;;;5070003;28;20452;-74
2023/11/13 03:33:11;;;;;;;8.80;7.40;;;8.10;99.90;;;;;;5072785;28;20828;-75
2023/11/13 03:35:57;;;;;;;7.50;6.70;;;8.10;99.90;;;;;;5075083;28;20530;-75
2023/11/13 03:38:42;;;;;;;6.97;6.23;;;8.10;99.90;;;;;;5075253;28;20582;-75
2023/11/13 03:41:28;;;;;;;8.47;7.57;;;8.20;99.90;;;;;;5065158;28;20443;-75
2023/11/13 03:44:14;;;;;;;11.50;10.20;;;8.20;99.90;;;;;;5067768;28;20459;-75
2023/11/13 03:47:01;;;;;;;11.40;9.60;;;8.20;99.90;;;;;;5077391;28;20672;-75
2023/11/13 03:49:46;;;;;;;10.63;9.50;;;8.20;99.90;;;;;;5076018;28;20449;-75
2023/11/13 03:52:32;;;;;;;10.50;9.40;;;8.20;99.90;;;;;;5063878;28;20459;-76
2023/11/13 03:55:17;;;;;;;12.03;10.53;;;8.20;99.90;;;;;;5056880;28;20443;-75
2023/11/13 03:58:03;;;;;;;12.37;11.17;;;8.20;99.90;;;;;;5076465;28;20446;-75
2023/11/13 04:00:50;;;;;;;15.30;11.73;;;8.10;99.90;;;;;;5077462;28;20497;-75
2023/11/13 04:03:37;;;;;;;15.37;13.87;;;8.20;99.90;;;;;;5081421;28;20465;-75
2023/11/13 04:06:22;;;;;;;15.57;13.77;;;8.20;99.90;;;;;;5075758;28;20486;-75
2023/11/13 04:09:08;;;;;;;11.23;10.10;;;8.20;99.90;;;;;;5067628;28;20443;-76
2023/11/13 04:11:55;;;;;;;10.47;9.37;;;8.10;99.90;;;;;;5076671;28;20447;-74
2023/11/13 04:14:41;;;;;;;9.07;7.93;;;8.20;99.90;;;;;;5067840;28;20494;-75
2023/11/13 04:17:26;;;;;;;9.67;8.40;;;8.10;99.90;;;;;;5078473;28;20444;-76
2023/11/13 04:20:14;;;;;;;9.00;8.10;;;8.10;99.90;;;;;;5065749;28;20965;-77
2023/11/13 04:23:00;;;;;;;7.47;6.63;;;8.10;99.90;;;;;;5074298;28;20494;-76
2023/11/13 04:25:46;;;;;;;7.40;6.60;;;8.20;99.90;;;;;;5078423;28;20456;-74
2023/11/13 04:28:32;;;;;;;7.53;6.83;;;8.20;99.90;;;;;;5069008;28;20438;-75
2023/11/13 04:31:18;;;;;;;7.43;6.53;;;8.20;99.90;;;;;;5073833;28;20433;-76
2023/11/13 04:34:05;;;;;;;8.77;7.33;;;8.30;99.90;;;;;;5077246;28;20558;-77
2023/11/13 04:36:52;;;;;;;8.50;7.60;;;8.20;99.90;;;;;;5076933;28;20436;-76
2023/11/13 04:39:38;;;;;;;10.30;7.87;;;8.20;99.90;;;;;;5068785;28;20423;-76
2023/11/13 04:42:24;;;;;;;10.10;7.70;;;8.20;99.90;;;;;;5067204;28;20485;-76
2023/11/13 04:45:10;;;;;;;11.50;7.40;;;8.30;99.90;;;;;;5074310;28;20914;-75
2023/11/13 04:47:55;;;;;;;11.07;8.37;;;8.30;99.90;;;;;;5076987;28;20439;-74
2023/11/13 04:50:41;;;;;;;11.40;8.17;;;8.30;99.90;;;;;;5073243;28;20513;-74
2023/11/13 04:53:28;;;;;;;8.87;7.30;;;8.30;99.90;;;;;;5064027;28;20450;-74
2023/11/13 04:56:13;;;;;;;10.27;7.70;;;8.30;99.90;;;;;;5080905;28;20777;-75
2023/11/13 04:58:59;;;;;;;9.37;7.03;;;8.30;99.90;;;;;;5083123;28;20851;-74
2023/11/13 05:01:46;;;;;;;7.80;4.27;;;8.40;99.90;;;;;;5082137;28;20434;-75
2023/11/13 05:04:32;;;;;;;4.57;3.10;;;8.50;99.90;;;;;;5065882;28;20440;-74
2023/11/13 05:07:17;;;;;;;4.10;2.93;;;8.80;99.90;;;;;;5074707;28;20541;-74
2023/11/13 05:10:05;;;;;;;10.70;3.80;;;9.10;99.90;;;;;;5064834;28;20509;-74
2023/11/13 05:12:51;;;;;;;4.33;3.80;;;9.30;99.90;;;;;;5071152;28;20515;-74
2023/11/13 05:15:37;;;;;;;5.27;4.27;;;9.50;99.90;;;;;;5068481;28;20427;-74
2023/11/13 05:18:23;;;;;;;3.83;3.43;;;9.50;99.90;;;;;;5070101;28;20447;-75
2023/11/13 05:21:08;;;;;;;5.93;4.60;;;9.60;99.90;;;;;;5071339;28;20487;-75
2023/11/13 05:23:54;;;;;;;8.90;4.50;;;9.70;99.90;;;;;;5084329;28;20549;-75
2023/11/13 05:26:41;;;;;;;7.90;4.87;;;9.80;99.90;;;;;;5072588;28;20946;-74
2023/11/13 05:29:27;;;;;;;7.17;4.77;;;9.90;99.90;;;;;;5070558;28;20528;-75
2023/11/13 05:32:12;;;;;;;10.20;5.33;;;9.90;99.90;;;;;;5073773;28;20424;-74
2023/11/13 05:34:58;;;;;;;7.20;5.40;;;10.00;99.90;;;;;;5073463;28;21003;-75
2023/11/13 05:37:44;;;;;;;13.87;6.40;;;10.00;99.90;;;;;;5067770;28;20430;-74
2023/11/13 05:40:29;;;;;;;13.73;6.80;;;10.00;99.90;;;;;;5077189;28;20423;-74
2023/11/13 05:43:17;;;;;;;11.83;8.07;;;10.00;99.90;;;;;;5079948;28;20479;-75
2023/11/13 05:46:03;;;;;;;14.10;10.30;;;10.10;99.90;;;;;;5075603;28;20437;-75
2023/11/13 05:48:49;;;;;;;13.90;11.10;;;10.10;99.90;;;;;;5070069;28;21068;-75
2023/11/13 05:51:34;;;;;;;16.67;13.40;;;10.10;99.90;;;;;;5069969;28;20484;-74
2023/11/13 05:54:20;;;;;;;22.27;16.00;;;10.10;99.90;;;;;;5067899;28;20987;-74
2023/11/13 05:57:06;;;;;;;18.97;16.90;;;10.20;99.90;;;;;;5088516;28;20428;-74
2023/11/13 05:59:53;;;;;;;23.47;18.53;;;10.20;99.90;;;;;;5080231;28;20428;-74
2023/11/13 06:02:39;;;;;;;21.00;17.63;;;10.20;99.90;;;;;;5085019;28;20473;-74
2023/11/13 06:05:24;;;;;;;25.40;16.40;;;10.20;99.90;;;;;;5076993;28;20553;-74
2023/11/13 06:08:10;;;;;;;20.70;17.13;;;10.20;99.90;;;;;;5094342;28;20407;-75
2023/11/13 06:10:55;;;;;;;23.10;17.97;;;10.20;99.90;;;;;;5092247;28;20433;-75
2023/11/13 06:13:41;;;;;;;20.27;16.50;;;10.20;99.90;;;;;;5082815;28;20462;-75
2023/11/13 06:16:28;;;;;;;23.77;16.10;;;10.30;99.90;;;;;;5069461;28;20568;-74
2023/11/13 06:19:14;;;;;;;23.20;18.20;;;10.30;99.90;;;;;;5074202;28;20555;-75
2023/11/13 06:22:00;;;;;;;23.00;19.80;;;10.30;99.90;;;;;;5080996;28;20417;-75
2023/11/13 06:24:45;;;;;;;22.77;18.43;;;10.30;99.90;;;;;;5077638;28;20450;-75
2023/11/13 06:27:31;;;;;;;22.20;18.20;;;10.30;99.90;;;;;;5075264;28;20429;-75
2023/11/13 06:30:17;;;;;;;23.80;18.50;;;10.30;99.90;;;;;;5086571;28;20417;-75
2023/11/13 06:33:03;;;;;;;19.13;16.50;;;10.40;99.90;;;;;;5088256;28;20421;-74
2023/11/13 06:35:49;;;;;;;20.87;15.37;;;10.40;99.90;;;;;;5080228;28;20544;-74
2023/11/13 06:38:35;;;;;;;18.87;15.03;;;10.40;99.90;;;;;;5068165;28;20435;-75
2023/11/13 06:41:20;;;;;;;22.37;14.27;;;10.40;99.90;;;;;;5075697;28;20399;-74
2023/11/13 06:44:07;;;;;;;23.33;15.60;;;10.40;99.90;;;;;;5087424;28;21007;-74
2023/11/13 06:46:53;;;;;;;18.30;14.43;;;10.40;99.90;;;;;;5076559;28;21077;-75
2023/11/13 06:49:40;;;;;;;22.53;14.77;;;10.40;99.90;;;;;;5078757;28;20440;-75
2023/11/13 06:52:26;;;;;;;15.27;13.57;;;10.30;99.90;;;;;;5087591;28;20420;-75
2023/11/13 06:55:13;;;;;;;20.80;15.60;;;10.30;99.90;;;;;;5078177;28;20429;-74
2023/11/13 06:57:58;;;;;;;18.17;14.80;;;10.30;99.90;;;;;;5081418;28;20399;-75
2023/11/13 07:00:45;;;;;;;17.40;15.30;;;10.30;99.90;;;;;;5074027;28;20520;-75
2023/11/13 07:03:30;;;;;;;20.20;14.07;;;10.30;99.90;;;;;;5083932;28;20473;-74
2023/11/13 07:06:17;;;;;;;19.63;15.60;;;10.20;99.90;;;;;;5074531;28;20399;-75
2023/11/13 07:09:03;;;;;;;19.37;14.57;;;10.20;99.90;;;;;;5078371;28;20432;-75
2023/11/13 07:11:49;;;;;;;19.00;14.20;;;10.30;99.90;;;;;;5071121;28;20845;-75
2023/11/13 07:14:34;;;;;;;18.93;12.40;;;10.20;99.90;;;;;;5075739;28;20901;-74
2023/11/13 07:17:21;;;;;;;12.30;6.47;;;10.30;99.90;;;;;;5078747;28;20444;-74
2023/11/13 07:20:09;;;;;;;12.97;6.10;;;10.30;99.90;;;;;;5076333;28;20433;-74
2023/11/13 07:22:55;;;;;;;13.73;5.30;;;10.40;99.90;;;;;;5076766;28;20615;-74
2023/11/13 07:25:41;;;;;;;14.30;4.40;;;10.50;99.90;;;;;;5080623;28;20982;-75
2023/11/13 07:28:28;;;;;;;17.40;4.33;;;10.60;99.90;;;;;;5072236;28;20426;-75
2023/11/13 07:31:14;;;;;;;21.07;3.90;;;10.60;99.90;;;;;;5078896;28;20424;-75
2023/11/13 07:34:00;;;;;;;27.23;4.00;;;10.60;99.90;;;;;;5081069;28;20455;-75
2023/11/13 07:36:45;;;;;;;17.50;3.93;;;10.70;99.90;;;;;;5074029;28;20425;-75
2023/11/13 07:39:32;;;;;;;12.40;4.37;;;10.70;99.90;;;;;;5074887;28;20445;-75
2023/11/13 07:42:18;;;;;;;18.80;3.97;;;10.70;99.90;;;;;;5083060;28;20531;-74
2023/11/13 07:45:05;;;;;;;14.10;3.97;;;10.80;99.90;;;;;;5082867;28;20448;-75
2023/11/13 07:47:50;;;;;;;13.57;3.70;;;10.70;99.90;;;;;;5080785;28;20487;-75
2023/11/13 07:50:37;;;;;;;12.80;4.80;;;10.70;99.90;;;;;;5072040;28;20441;-75
2023/11/13 07:53:23;;;;;;;11.37;4.07;;;10.80;99.90;;;;;;5074600;28;20582;-75
2023/11/13 07:56:11;;;;;;;14.00;3.87;;;10.80;99.90;;;;;;5074394;28;20479;-74
2023/11/13 07:58:57;;;;;;;13.37;3.90;;;10.80;99.90;;;;;;5073400;28;20504;-74
2023/11/13 08:01:43;;;;;;;19.47;4.00;;;10.80;99.90;;;;;;5076870;28;20429;-75
2023/11/13 08:04:28;;;;;;;9.40;3.53;;;10.80;99.90;;;;;;5073051;28;20503;-75
2023/11/13 08:07:14;;;;;;;10.70;4.60;;;10.80;99.90;;;;;;5072549;28;20730;-75
2023/11/13 08:10:01;;;;;;;15.60;3.20;;;10.80;99.90;;;;;;5080465;28;20437;-74
2023/11/13 08:12:49;;;;;;;10.30;3.80;;;10.80;99.90;;;;;;5072992;28;20401;-75
2023/11/13 08:15:35;;;;;;;13.87;3.53;;;10.80;99.90;;;;;;5083821;28;20794;-75
2023/11/13 08:18:22;;;;;;;11.90;5.37;;;10.70;99.90;;;;;;5083292;28;20924;-75
2023/11/13 08:21:10;;;;;;;17.73;4.37;;;10.80;99.90;;;;;;5078858;28;20878;-75
2023/11/13 08:23:55;;;;;;;15.60;4.67;;;10.80;99.90;;;;;;5075563;28;21016;-74
2023/11/13 08:26:41;;;;;;;6.10;4.80;;;10.80;99.90;;;;;;5075863;28;20434;-75
2023/11/13 08:29:29;;;;;;;10.53;4.00;;;10.80;99.90;;;;;;5081163;28;20433;-75
2023/11/13 08:32:17;;;;;;;9.73;4.10;;;10.80;99.90;;;;;;5078714;28;20424;-75
2023/11/13 08:35:04;;;;;;;12.97;4.40;;;10.80;99.90;;;;;;5077518;28;20469;-75
2023/11/13 08:37:50;;;;;;;6.10;3.77;;;10.80;99.90;;;;;;5076519;28;20446;-75
2023/11/13 08:40:36;;;;;;;23.27;4.70;;;10.80;99.90;;;;;;5076612;28;20449;-75
2023/11/13 08:43:23;;;;;;;22.60;6.20;;;10.80;99.90;;;;;;5081782;28;20492;-74
2023/11/13 08:46:11;;;;;;;19.50;4.60;;;10.80;99.90;;;;;;5071355;28;20440;-75
2023/11/13 08:48:56;;;;;;;20.50;5.43;;;10.80;99.90;;;;;;5075832;28;20430;-75
2023/11/13 08:51:42;;;;;;;19.63;4.90;;;10.90;99.90;;;;;;5072279;28;20421;-74
2023/11/13 08:54:28;;;;;;;19.33;6.20;;;10.90;99.90;;;;;;5082811;28;20983;-75
2023/11/13 08:57:14;;;;;;;19.10;4.83;;;10.90;99.90;;;;;;5077891;28;20398;-74
2023/11/13 09:00:00;;;;;;;10.20;3.57;;;10.90;99.90;;;;;;5086233;28;20587;-74
2023/11/13 09:02:48;;;;;;;14.33;3.47;;;11.00;99.90;;;;;;5073116;28;20429;-75
2023/11/13 09:05:33;;;;;;;13.20;3.90;;;11.00;99.90;;;;;;5083595;28;20426;-75
2023/11/13 09:08:19;;;;;;;14.90;4.20;;;11.10;99.90;;;;;;5082778;28;20540;-75
2023/11/13 09:11:05;;;;;;;19.80;4.40;;;11.10;99.90;;;;;;5075138;28;20432;-75
2023/11/13 09:13:51;;;;;;;26.63;4.33;;;11.00;99.90;;;;;;5082898;28;20457;-76
2023/11/13 09:16:38;;;;;;;14.07;3.67;;;11.00;99.90;;;;;;5079608;28;20476;-75
2023/11/13 09:19:26;;;;;;;18.67;3.30;;;10.90;99.90;;;;;;5079904;28;20440;-76
2023/11/13 09:22:12;;;;;;;14.90;3.80;;;10.90;99.90;;;;;;5083438;28;20822;-77
2023/11/13 09:24:57;;;;;;;16.87;3.23;;;10.90;99.90;;;;;;5072025;28;20494;-77
2023/11/13 09:27:43;;;;;;;13.80;3.40;;;10.90;99.90;;;;;;5072665;28;20965;-77
2023/11/13 09:30:30;;;;;;;14.90;3.70;;;10.80;99.90;;;;;;5077431;28;20526;-76
2023/11/13 09:33:17;;;;;;;12.23;3.70;;;10.80;99.90;;;;;;5082185;28;20464;-76
2023/11/13 09:36:05;;;;;;;11.57;4.07;;;10.90;99.90;;;;;;5074876;28;20437;-77
2023/11/13 09:38:53;;;;;;;11.20;3.33;;;10.90;99.90;;;;;;5077040;28;20473;-76
2023/11/13 09:41:45;;;;;;;11.10;3.50;;;10.90;99.90;;;;;;5069227;28;20431;-76
2023/11/13 09:44:32;;;;;;;8.53;2.50;;;10.90;99.90;;;;;;5078050;28;20611;-77
2023/11/13 09:47:20;;;;;;;9.40;2.53;;;10.90;99.90;;;;;;5078701;28;20427;-77
2023/11/13 09:50:15;;;;;;;6.47;3.00;;;10.90;99.90;;;;;;5078614;28;20424;-76
2023/11/13 09:53:04;;;;;;;9.50;2.33;;;10.90;99.90;;;;;;5080475;28;20445;-77
2023/11/13 09:55:50;;;;;;;7.87;2.33;;;10.90;99.90;;;;;;5082957;28;20426;-76
2023/11/13 09:58:37;;;;;;;7.63;2.60;;;11.00;99.90;;;;;;5090946;28;20819;-77
2023/11/13 10:01:22;;;;;;;7.00;2.10;;;11.00;99.90;;;;;;5083387;28;20425;-76
2023/11/13 10:04:09;;;;;;;6.73;2.50;;;11.00;99.90;;;;;;5079865;28;20460;-77
2023/11/13 10:06:57;;;;;;;5.20;1.77;;;11.00;99.90;;;;;;5086521;28;20467;-77
2023/11/13 10:10:00;;;;;;;7.50;3.03;;;11.00;99.90;;;;;;5076818;28;20445;-77
2023/11/13 10:12:46;;;;;;;9.67;3.20;;;11.00;99.90;;;;;;5071969;28;20594;-77
2023/11/13 10:15:33;;;;;;;9.40;3.20;;;11.00;99.90;;;;;;5080412;28;20454;-77
2023/11/13 10:18:26;;;;;;;13.47;2.07;;;10.90;99.90;;;;;;5072107;28;20419;-77
2023/11/13 10:21:20;;;;;;;7.23;3.17;;;10.90;99.90;;;;;;5081524;28;20474;-77
2023/11/13 10:24:17;;;;;;;6.40;2.30;;;11.00;99.90;;;;;;5083731;28;20487;-76
2023/11/13 10:27:06;;;;;;;4.23;2.13;;;11.00;99.90;;;;;;5078265;28;20520;-77
2023/11/13 10:30:03;;;;;;;6.63;3.60;;;11.10;99.90;;;;;;5076302;28;20450;-77
2023/11/13 10:32:49;;;;;;;5.40;2.90;;;11.20;99.90;;;;;;5078030;28;20449;-73
2023/11/13 10:35:38;;;;;;;6.43;3.60;;;11.30;99.90;;;;;;5075575;28;21084;-77
2023/11/13 10:38:24;;;;;;;10.97;3.37;;;11.40;99.90;;;;;;5067457;28;20457;-76
2023/11/13 10:41:12;;;;;;;15.53;5.63;;;11.40;99.90;;;;;;5075157;28;20441;-76
2023/11/13 10:43:59;;;;;;;9.20;3.93;;;11.50;99.90;;;;;;5074572;28;20609;-72
2023/11/13 10:46:45;;;;;;;16.83;5.90;;;11.50;99.90;;;;;;5070928;28;20441;-75
2023/11/13 10:49:30;;;;;;;5.90;3.63;;;11.60;99.90;;;;;;5067059;28;20825;-77
2023/11/13 10:52:17;;;;;;;14.70;4.33;;;11.70;99.90;;;;;;5078604;28;20975;-76
2023/11/13 10:55:04;;;;;;;8.13;4.60;;;11.70;99.90;;;;;;5079438;28;20495;-75
2023/11/13 10:57:50;;;;;;;8.37;3.63;;;11.70;99.90;;;;;;5077409;28;20428;-77
2023/11/13 11:00:38;;;;;;;7.17;3.87;;;11.80;99.90;;;;;;5066480;28;20577;-77
2023/11/13 11:03:30;;;;;;;12.17;4.33;;;11.80;99.90;;;;;;5070650;28;20447;-77
2023/11/13 11:06:19;;;;;;;12.47;3.93;;;11.90;99.90;;;;;;5071961;28;20560;-76
2023/11/13 11:09:07;;;;;;;10.80;4.30;;;11.90;99.90;;;;;;5074511;28;20458;-76
2023/11/13 11:11:53;;;;;;;4.73;3.10;;;12.00;99.90;;;;;;5069570;28;20528;-77
2023/11/13 11:14:53;;;;;;;9.57;4.17;;;12.00;99.90;;;;;;5077501;28;20626;-75
2023/11/13 11:17:46;;;;;;;7.20;3.40;;;12.10;99.90;;;;;;5067075;28;20453;-77
2023/11/13 11:20:42;;;;;;;6.00;3.10;;;12.10;99.90;;;;;;5074047;28;20488;-76
2023/11/13 11:23:34;;;;;;;9.30;3.60;;;12.20;99.90;;;;;;5070787;28;20482;-77
2023/11/13 11:26:20;;;;;;;5.10;3.00;;;12.20;99.90;;;;;;5066718;28;20433;-77
2023/11/13 11:29:26;;;;;;;16.13;4.80;;;12.30;99.90;;;;;;5068359;28;20444;-76
2023/11/13 11:32:21;;;;;;;9.40;3.83;;;12.30;99.90;;;;;;5073847;28;20447;-75
2023/11/13 11:35:11;;;;;;;10.37;4.37;;;12.30;99.90;;;;;;5084703;28;20464;-77
2023/11/13 11:38:17;;;;;;;5.47;2.80;;;12.30;99.90;;;;;;5077905;28;20450;-77
2023/11/13 11:41:23;;;;;;;5.07;2.70;;;12.40;99.90;;;;;;5077700;28;20457;-77
2023/11/13 11:44:11;;;;;;;8.67;2.87;;;12.50;99.90;;;;;;5064195;28;20473;-77
2023/11/13 11:46:58;;;;;;;3.60;3.00;;;12.50;99.90;;;;;;5068280;28;20474;-76
2023/11/13 11:49:44;;;;;;;7.33;2.63;;;12.50;99.90;;;;;;5067399;28;20467;-77
2023/11/13 11:52:51;;;;;;;8.10;3.00;;;12.50;99.90;;;;;;5066174;28;20814;-77
2023/11/13 11:55:37;;;;;;;7.20;3.80;;;12.50;99.90;;;;;;5064174;28;20424;-76
2023/11/13 11:58:24;;;;;;;9.40;3.00;;;12.50;99.90;;;;;;5066629;28;20450;-76
2023/11/13 12:01:09;;;;;;;4.33;2.87;;;12.60;99.90;;;;;;5063597;28;20448;-76
2023/11/13 12:03:55;;;;;;;5.13;2.27;;;12.70;99.90;;;;;;5067537;28;21006;-76
2023/11/13 12:06:41;;;;;;;8.23;2.77;;;12.70;99.90;;;;;;5070296;28;20456;-76
2023/11/13 12:09:29;;;;;;;4.10;2.30;;;12.80;99.90;;;;;;5063026;28;20965;-76
2023/11/13 12:12:15;;;;;;;6.70;2.73;;;12.80;99.90;;;;;;5068523;28;20513;-77
2023/11/13 12:15:01;;;;;;;6.60;3.00;;;12.80;99.90;;;;;;5076745;28;20522;-76
2023/11/13 12:17:46;;;;;;;7.90;3.23;;;12.90;99.90;;;;;;5072056;28;20424;-77
2023/11/13 12:20:32;;;;;;;7.97;2.87;;;12.90;99.90;;;;;;5068935;28;20615;-77
2023/11/13 12:23:18;;;;;;;5.90;2.73;;;12.90;99.90;;;;;;5077258;28;20464;-77
2023/11/13 12:26:06;;;;;;;7.17;2.67;;;13.00;99.90;;;;;;5084067;28;20469;-77
2023/11/13 12:28:52;;;;;;;11.17;2.80;;;13.10;99.90;;;;;;5076347;28;20424;-77
2023/11/13 12:31:38;;;;;;;9.93;3.20;;;13.10;99.90;;;;;;5069885;28;20927;-77
2023/11/13 12:34:25;;;;;;;8.83;3.10;;;13.10;99.90;;;;;;5067366;28;20931;-76
2023/11/13 12:37:11;;;;;;;11.60;4.30;;;13.10;99.90;;;;;;5075895;28;20445;-77
2023/11/13 12:39:58;;;;;;;6.73;3.47;;;13.10;99.90;;;;;;5082696;28;20417;-76
2023/11/13 12:42:45;;;;;;;7.00;3.70;;;13.10;99.90;;;;;;5079811;28;20534;-76
2023/11/13 12:45:31;;;;;;;11.70;3.43;;;13.10;99.90;;;;;;5070456;28;20478;-76
2023/11/13 12:48:22;;;;;;;6.60;3.30;;;13.20;99.90;;;;;;5064789;28;20469;-77
2023/11/13 12:51:10;;;;;;;6.37;3.47;;;13.20;99.90;;;;;;5067260;28;20637;-76
2023/11/13 12:53:59;;;;;;;9.87;3.43;;;13.10;99.90;;;;;;5060660;28;20537;-77
2023/11/13 12:56:46;;;;;;;10.70;3.80;;;13.20;99.90;;;;;;5067446;28;20443;-75
2023/11/13 12:59:33;;;;;;;8.70;3.50;;;13.20;99.90;;;;;;5067719;28;20426;-77
2023/11/13 13:02:21;;;;;;;11.93;4.03;;;13.10;99.90;;;;;;5062120;28;20442;-73
2023/11/13 13:05:11;;;;;;;14.70;4.00;;;13.20;99.90;;;;;;5069464;28;20537;-76
2023/11/13 13:07:56;;;;;;;7.03;3.50;;;13.20;99.90;;;;;;5070749;28;20439;-77
2023/11/13 13:10:42;;;;;;;12.20;3.80;;;13.20;99.90;;;;;;5074698;28;20424;-77
2023/11/13 13:13:28;;;;;;;6.40;4.10;;;13.20;99.90;;;;;;5076978;28;20480;-77
2023/11/13 13:16:18;;;;;;;11.53;4.27;;;13.20;99.90;;;;;;5070148;28;20830;-77
2023/11/13 13:19:03;;;;;;;13.10;3.70;;;13.20;99.90;;;;;;5067910;28;20471;-77
2023/11/13 13:21:49;;;;;;;11.93;4.00;;;13.20;99.90;;;;;;5073252;28;20470;-77
2023/11/13 13:24:35;;;;;;;8.50;4.43;;;13.20;99.90;;;;;;5080433;28;20585;-77
2023/11/13 13:27:22;;;;;;;9.43;4.73;;;13.20;99.90;;;;;;5069484;28;20444;-76
2023/11/13 13:30:08;;;;;;;10.30;3.40;;;13.20;99.90;;;;;;5066886;28;20445;-77
2023/11/13 13:32:55;;;;;;;15.93;4.40;;;13.30;99.90;;;;;;5079797;28;20972;-77
2023/11/13 13:35:41;;;;;;;10.57;3.67;;;13.30;99.90;;;;;;5066373;28;21034;-77
2023/11/13 13:38:27;;;;;;;9.47;3.67;;;13.30;99.90;;;;;;5072652;28;20536;-77
2023/11/13 13:41:16;;;;;;;10.87;3.30;;;13.30;99.90;;;;;;5079306;28;20440;-77
2023/11/13 13:44:01;;;;;;;7.97;3.90;;;13.30;99.90;;;;;;5078687;28;20472;-77
2023/11/13 13:46:47;;;;;;;9.43;4.10;;;13.30;99.90;;;;;;5065200;28;20638;-77
2023/11/13 13:49:35;;;;;;;7.13;3.53;;;13.40;99.90;;;;;;5067684;28;20428;-77
2023/11/13 13:52:23;;;;;;;9.83;3.93;;;13.40;99.90;;;;;;5068805;28;20416;-76
2023/11/13 13:55:11;;;;;;;8.40;3.47;;;13.40;99.90;;;;;;5065628;28;20477;-76
2023/11/13 13:58:00;;;;;;;6.23;3.60;;;13.50;99.90;;;;;;5069837;28;20413;-77
2023/11/13 14:00:48;;;;;;;4.53;3.30;;;13.50;99.90;;;;;;5064784;28;20446;-77
2023/11/13 14:03:34;;;;;;;8.63;3.23;;;13.50;99.90;;;;;;5066040;28;20474;-76
2023/11/13 14:06:22;;;;;;;10.63;3.27;;;13.50;99.90;;;;;;5071767;28;20479;-77
2023/11/13 14:09:13;;;;;;;14.03;3.57;;;13.60;99.90;;;;;;5080235;28;20454;-77
2023/11/13 14:11:59;;;;;;;13.10;3.60;;;13.50;99.90;;;;;;5078117;28;20504;-77
2023/11/13 14:14:44;;;;;;;4.63;2.93;;;13.50;99.90;;;;;;5084472;28;20530;-76
2023/11/13 14:17:29;;;;;;;5.60;3.70;;;13.60;99.90;;;;;;5069193;28;20488;-77
2023/11/13 14:20:16;;;;;;;8.23;3.50;;;13.60;99.90;;;;;;5072964;28;20452;-77
2023/11/13 14:23:02;;;;;;;7.50;3.50;;;13.60;99.90;;;;;;5080283;28;20453;-77
2023/11/13 14:25:48;;;;;;;6.33;3.70;;;13.60;99.90;;;;;;5079803;28;21050;-77
2023/11/13 14:28:34;;;;;;;11.67;2.63;;;13.60;99.90;;;;;;5087125;28;20554;-76